Time;durP1;ratioP1;P1;durP2;ratioP2;P2;SDS_P1;SDS_P2;PMS_P1;PMS_P2;Temp;Humidity;BMP_temperature;BMP_pressure;BME280_temperature;BME280_humidity;BME280_pressure;Samples;Min_cycle;Max_cycle;Signal;HPM_P1;HPM_P2
2023/01/30 00:01:17;;;;;;;2.67;2.15;;;6.80;99.90;;;;;;4945818;28;20051;-87
2023/01/30 00:03:44;;;;;;;4.45;2.20;;;6.90;99.90;;;;;;4930145;29;20090;-87
2023/01/30 00:06:11;;;;;;;4.40;2.33;;;6.80;99.90;;;;;;4959245;28;20134;-87
2023/01/30 00:08:38;;;;;;;3.58;2.50;;;6.90;99.90;;;;;;4977379;28;20490;-88
2023/01/30 00:11:05;;;;;;;3.95;2.58;;;6.90;99.90;;;;;;4978694;28;20058;-88
2023/01/30 00:13:33;;;;;;;6.25;1.90;;;6.90;99.90;;;;;;4960035;28;20421;-88
2023/01/30 00:15:59;;;;;;;3.78;1.83;;;7.00;99.90;;;;;;4978852;28;20106;-88
2023/01/30 00:18:26;;;;;;;3.30;1.95;;;7.00;99.90;;;;;;4962197;28;20409;-87
2023/01/30 00:21:01;;;;;;;6.18;2.55;;;7.00;99.90;;;;;;4961689;28;20154;-87
2023/01/30 00:23:28;;;;;;;4.15;2.13;;;7.00;99.90;;;;;;4960410;28;20385;-87
2023/01/30 00:25:56;;;;;;;5.45;2.05;;;7.00;99.90;;;;;;4945339;29;20130;-88
2023/01/30 00:28:23;;;;;;;3.33;1.85;;;7.00;99.90;;;;;;4944517;29;20126;-87
2023/01/30 00:30:50;;;;;;;2.63;1.75;;;7.00;99.90;;;;;;4929927;29;20406;-87
2023/01/30 00:33:17;;;;;;;3.33;1.73;;;7.00;99.90;;;;;;4944520;29;20545;-87
2023/01/30 00:35:45;;;;;;;5.90;2.13;;;7.00;99.90;;;;;;4976978;28;20373;-87
2023/01/30 00:38:12;;;;;;;4.63;1.65;;;7.00;99.90;;;;;;4976253;28;20083;-86
2023/01/30 00:40:39;;;;;;;3.30;1.83;;;7.00;99.90;;;;;;4945470;28;20137;-86
2023/01/30 00:48:38;;;;;;;4.30;2.13;;;7.10;99.90;;;;;;4945349;29;20083;-86
2023/01/30 00:51:04;;;;;;;2.70;1.83;;;7.10;99.90;;;;;;4945212;29;20047;-88
2023/01/30 00:53:31;;;;;;;2.88;1.70;;;7.20;99.90;;;;;;4945727;29;20059;-87
2023/01/30 00:55:58;;;;;;;3.55;1.75;;;7.20;99.90;;;;;;4944431;29;20059;-87
2023/01/30 00:58:25;;;;;;;2.08;1.73;;;7.30;99.90;;;;;;4958862;28;20047;-88
2023/01/30 01:00:52;;;;;;;4.30;1.77;;;7.20;99.90;;;;;;4945031;29;20047;-87
2023/01/30 01:03:19;;;;;;;3.13;1.70;;;7.30;99.90;;;;;;4927929;29;20048;-87
2023/01/30 01:05:46;;;;;;;3.85;1.45;;;7.30;99.90;;;;;;4944703;29;20075;-87
2023/01/30 01:08:13;;;;;;;4.07;2.08;;;7.30;99.90;;;;;;4944417;28;20043;-87
2023/01/30 01:10:40;;;;;;;2.25;1.52;;;7.30;99.90;;;;;;4945988;28;20090;-87
2023/01/30 01:13:09;;;;;;;3.33;1.65;;;7.40;99.90;;;;;;4942594;29;20138;-87
2023/01/30 01:15:36;;;;;;;2.65;1.60;;;7.40;99.90;;;;;;4945735;29;20047;-86
2023/01/30 01:18:03;;;;;;;3.83;2.05;;;7.40;99.90;;;;;;4944405;29;20083;-86
2023/01/30 01:20:30;;;;;;;3.35;1.52;;;7.40;99.90;;;;;;4975891;28;20047;-87
2023/01/30 01:22:57;;;;;;;2.65;1.38;;;7.40;99.90;;;;;;4944497;28;20047;-86
2023/01/30 01:25:24;;;;;;;2.83;1.23;;;7.40;99.90;;;;;;4952496;28;20059;-86
2023/01/30 01:27:51;;;;;;;2.17;1.40;;;7.40;99.90;;;;;;4962274;28;20055;-87
2023/01/30 01:30:18;;;;;;;1.90;1.35;;;7.40;99.90;;;;;;4978451;28;20055;-87
2023/01/30 01:32:45;;;;;;;3.38;1.40;;;7.40;99.90;;;;;;4943419;29;20039;-86
2023/01/30 01:35:13;;;;;;;2.75;1.48;;;7.40;99.90;;;;;;4945288;28;20475;-87
2023/01/30 01:37:39;;;;;;;3.30;1.48;;;7.40;99.90;;;;;;4945063;28;20051;-87
2023/01/30 01:42:52;;;;;;;2.90;1.40;;;7.50;99.90;;;;;;4942540;29;20181;-86
2023/01/30 01:45:23;;;;;;;3.15;1.65;;;7.50;99.90;;;;;;4976196;28;20051;-87
2023/01/30 01:48:36;;;;;;;3.28;1.50;;;7.50;99.90;;;;;;4960706;28;20051;-87
2023/01/30 01:51:10;;;;;;;1.80;1.15;;;7.60;99.90;;;;;;4948654;28;20057;-87
2023/01/30 01:53:40;;;;;;;2.65;1.33;;;7.60;99.90;;;;;;4932128;28;20563;-87
2023/01/30 01:56:07;;;;;;;3.38;1.90;;;7.60;99.90;;;;;;4976201;28;20658;-87
2023/01/30 01:58:36;;;;;;;3.55;1.88;;;7.60;99.90;;;;;;4959019;28;20506;-86
2023/01/30 02:01:04;;;;;;;2.40;1.50;;;7.60;99.90;;;;;;4959350;28;20058;-87
2023/01/30 02:03:33;;;;;;;3.53;1.67;;;7.60;99.90;;;;;;4927464;29;20348;-86
2023/01/30 02:06:01;;;;;;;3.60;1.33;;;7.60;99.90;;;;;;4975970;28;20079;-86
2023/01/30 02:08:51;;;;;;;3.92;1.20;;;7.60;99.90;;;;;;4927836;29;20051;-86
2023/01/30 02:11:49;;;;;;;2.90;1.25;;;7.60;99.90;;;;;;4970687;28;20058;-86
2023/01/30 02:14:15;;;;;;;4.32;1.48;;;7.60;99.90;;;;;;4942337;29;20065;-86
2023/01/30 02:16:43;;;;;;;3.53;1.80;;;7.50;99.90;;;;;;4959384;28;20114;-86
2023/01/30 02:19:48;;;;;;;1.80;1.13;;;7.50;99.90;;;;;;4960222;28;20447;-87
2023/01/30 02:22:33;;;;;;;1.90;1.27;;;7.50;99.90;;;;;;4975384;28;20057;-86
2023/01/30 02:25:28;;;;;;;3.40;1.63;;;7.50;99.90;;;;;;4943516;29;20286;-86
2023/01/30 02:28:13;;;;;;;2.88;1.38;;;7.50;99.90;;;;;;4957777;28;20166;-86
2023/01/30 02:30:57;;;;;;;3.38;1.25;;;7.50;99.90;;;;;;4945526;28;20079;-85
2023/01/30 02:33:38;;;;;;;3.72;1.65;;;7.50;99.90;;;;;;4949334;28;20043;-86
2023/01/30 02:36:05;;;;;;;3.92;1.35;;;7.50;99.90;;;;;;4948398;28;20062;-85
2023/01/30 02:38:50;;;;;;;2.05;1.10;;;7.50;99.90;;;;;;4948522;28;20086;-86
2023/01/30 02:41:33;;;;;;;1.60;1.10;;;7.50;99.90;;;;;;4946620;29;20154;-86
2023/01/30 02:44:24;;;;;;;1.58;1.00;;;7.50;99.90;;;;;;4962094;28;20051;-85
2023/01/30 02:47:07;;;;;;;3.20;1.30;;;7.50;99.90;;;;;;4948273;29;20055;-87
2023/01/30 02:49:43;;;;;;;3.43;1.03;;;7.50;99.90;;;;;;4932674;29;20134;-86
2023/01/30 02:52:11;;;;;;;2.33;1.20;;;7.50;99.90;;;;;;4932520;29;20517;-87
2023/01/30 02:54:37;;;;;;;1.13;0.90;;;7.60;99.90;;;;;;4916757;29;20141;-87
2023/01/30 02:57:21;;;;;;;2.88;1.13;;;7.70;99.90;;;;;;4932258;29;20051;-87
2023/01/30 02:59:54;;;;;;;3.67;1.70;;;7.70;99.90;;;;;;4962328;28;20716;-87
2023/01/30 03:02:30;;;;;;;2.60;1.08;;;7.80;99.90;;;;;;4966463;28;20102;-87
2023/01/30 03:05:07;;;;;;;4.60;1.85;;;7.80;99.90;;;;;;4934968;29;20055;-86
2023/01/30 03:07:43;;;;;;;2.80;1.10;;;7.90;99.90;;;;;;4962324;28;20177;-87
2023/01/30 03:10:28;;;;;;;2.53;1.30;;;7.90;99.90;;;;;;4968225;28;20059;-87
2023/01/30 03:12:59;;;;;;;2.67;1.02;;;7.90;99.90;;;;;;4952089;28;20055;-86
2023/01/30 03:15:38;;;;;;;2.17;1.15;;;7.90;99.90;;;;;;4952356;29;20602;-87
2023/01/30 03:18:05;;;;;;;2.42;1.08;;;7.90;99.90;;;;;;4984529;28;20066;-87
2023/01/30 03:20:38;;;;;;;1.45;1.17;;;7.90;99.90;;;;;;4968637;28;20051;-87
2023/01/30 03:23:06;;;;;;;2.90;1.60;;;7.90;99.90;;;;;;4968879;28;20363;-87
2023/01/30 03:25:34;;;;;;;2.67;1.20;;;7.90;99.90;;;;;;4968212;28;20112;-86
2023/01/30 03:28:01;;;;;;;3.55;1.23;;;7.90;99.90;;;;;;4951797;29;20090;-86
2023/01/30 03:30:28;;;;;;;3.83;1.38;;;7.90;99.90;;;;;;4984454;28;20106;-86
2023/01/30 03:32:55;;;;;;;3.72;1.60;;;7.90;99.90;;;;;;4955314;28;20086;-87
2023/01/30 03:35:22;;;;;;;4.35;1.25;;;7.90;99.90;;;;;;4984060;28;20479;-87
2023/01/30 03:37:48;;;;;;;5.95;1.90;;;7.80;99.90;;;;;;4984258;28;20154;-87
2023/01/30 03:40:15;;;;;;;3.40;1.40;;;7.80;99.90;;;;;;4968737;28;20205;-87
2023/01/30 03:42:42;;;;;;;2.67;1.40;;;7.80;99.90;;;;;;4951728;29;20149;-86
2023/01/30 03:45:10;;;;;;;2.63;1.45;;;7.80;99.90;;;;;;4936614;29;20106;-86
2023/01/30 03:47:36;;;;;;;3.40;1.70;;;7.80;99.90;;;;;;4953003;28;20054;-87
2023/01/30 03:50:03;;;;;;;2.40;1.67;;;7.70;99.90;;;;;;4953202;28;20054;-87
2023/01/30 03:52:30;;;;;;;3.72;1.50;;;7.70;99.90;;;;;;4935320;29;20051;-86
2023/01/30 03:54:57;;;;;;;3.22;1.42;;;7.70;99.90;;;;;;4951616;29;20205;-87
2023/01/30 03:57:23;;;;;;;3.35;1.40;;;7.70;99.90;;;;;;4967307;28;20467;-87
2023/01/30 03:59:50;;;;;;;4.90;2.03;;;7.70;99.90;;;;;;4982876;28;20489;-84
2023/01/30 04:02:21;;;;;;;2.20;1.20;;;7.70;99.90;;;;;;4966944;28;20047;-87
2023/01/30 04:04:49;;;;;;;3.08;1.40;;;7.70;99.90;;;;;;4967037;28;20055;-86
2023/01/30 04:07:16;;;;;;;2.40;1.65;;;7.70;99.90;;;;;;4951799;29;20407;-85
2023/01/30 04:09:43;;;;;;;2.83;1.25;;;7.70;99.90;;;;;;4951214;28;20051;-87
2023/01/30 04:12:10;;;;;;;2.28;1.50;;;7.70;99.90;;;;;;4966669;28;20580;-85
2023/01/30 04:14:36;;;;;;;2.38;1.20;;;7.70;99.90;;;;;;4983292;28;20054;-87
2023/01/30 04:17:03;;;;;;;3.03;1.50;;;7.60;99.90;;;;;;4951664;29;20053;-86
2023/01/30 04:19:30;;;;;;;3.55;1.40;;;7.60;99.90;;;;;;4935682;29;20495;-86
2023/01/30 04:21:57;;;;;;;2.33;1.40;;;7.70;99.90;;;;;;4951126;29;20047;-86
2023/01/30 04:24:23;;;;;;;2.92;1.35;;;7.60;99.90;;;;;;4951647;29;20057;-85
2023/01/30 04:26:50;;;;;;;3.25;1.50;;;7.70;99.90;;;;;;4951052;28;20051;-86
2023/01/30 04:29:17;;;;;;;3.03;1.20;;;7.70;99.90;;;;;;4951403;28;20624;-86
2023/01/30 04:31:43;;;;;;;3.30;1.58;;;7.70;99.90;;;;;;4950737;28;20066;-86
2023/01/30 04:34:10;;;;;;;2.92;1.60;;;7.70;99.90;;;;;;4951492;29;20170;-85
2023/01/30 04:36:38;;;;;;;3.15;1.70;;;7.70;99.90;;;;;;4949587;29;20047;-85
2023/01/30 04:39:05;;;;;;;4.53;2.45;;;7.70;99.90;;;;;;4950294;28;20051;-86
2023/01/30 04:41:32;;;;;;;3.60;1.77;;;7.70;99.90;;;;;;4953575;28;20080;-86
2023/01/30 04:43:58;;;;;;;2.17;1.25;;;7.70;99.90;;;;;;4951869;28;20711;-85
2023/01/30 04:46:25;;;;;;;3.22;1.75;;;7.70;99.90;;;;;;4952721;29;20517;-86
2023/01/30 04:48:52;;;;;;;4.05;1.52;;;7.70;99.90;;;;;;4951693;29;20521;-87
2023/01/30 04:51:19;;;;;;;3.05;1.33;;;7.80;99.90;;;;;;4953721;28;20481;-86
2023/01/30 04:53:46;;;;;;;3.97;1.55;;;7.80;99.90;;;;;;4953755;29;20065;-86
2023/01/30 04:56:13;;;;;;;2.67;1.38;;;7.80;99.90;;;;;;4953482;29;20078;-86
2023/01/30 04:58:39;;;;;;;2.30;1.40;;;7.80;99.90;;;;;;4951085;29;20158;-86
2023/01/30 05:01:28;;;;;;;3.15;1.50;;;7.80;99.90;;;;;;4953315;28;20102;-85
2023/01/30 05:03:55;;;;;;;2.00;1.35;;;7.80;99.90;;;;;;4951657;29;20039;-87
2023/01/30 05:06:22;;;;;;;2.53;1.48;;;7.80;99.90;;;;;;4984110;28;20043;-86
2023/01/30 05:08:53;;;;;;;2.92;1.55;;;7.80;99.90;;;;;;4967951;28;20154;-86
2023/01/30 05:11:20;;;;;;;3.05;1.73;;;7.70;99.90;;;;;;4951610;29;20114;-85
2023/01/30 05:13:50;;;;;;;3.70;1.75;;;7.80;99.90;;;;;;4966943;28;20059;-85
2023/01/30 05:16:17;;;;;;;1.90;1.30;;;7.70;99.90;;;;;;4951774;28;20491;-86
2023/01/30 05:18:44;;;;;;;3.88;1.48;;;7.70;99.90;;;;;;4952062;28;20051;-86
2023/01/30 05:21:13;;;;;;;2.42;1.70;;;7.60;99.90;;;;;;4984051;28;20360;-86
2023/01/30 05:23:40;;;;;;;2.55;1.52;;;7.60;99.90;;;;;;4983004;28;20075;-86
2023/01/30 05:26:07;;;;;;;5.18;1.70;;;7.60;99.90;;;;;;4983073;28;20098;-85
2023/01/30 05:28:33;;;;;;;2.50;1.42;;;7.70;99.90;;;;;;4965894;28;20053;-87
2023/01/30 05:31:18;;;;;;;1.75;1.40;;;7.70;99.90;;;;;;4953231;29;20057;-86
2023/01/30 05:33:47;;;;;;;2.75;1.33;;;7.60;99.90;;;;;;4952460;28;20131;-85
2023/01/30 05:36:15;;;;;;;4.32;1.90;;;7.60;99.90;;;;;;4967609;28;20415;-86
2023/01/30 05:38:42;;;;;;;3.05;1.20;;;7.50;99.90;;;;;;4952077;29;20082;-86
2023/01/30 05:41:10;;;;;;;2.13;1.50;;;7.50;99.90;;;;;;4967248;28;20048;-86
2023/01/30 05:43:36;;;;;;;3.17;1.35;;;7.50;99.90;;;;;;4950745;28;20150;-86
2023/01/30 05:46:04;;;;;;;2.22;1.30;;;7.50;99.90;;;;;;4935826;29;20059;-86
2023/01/30 05:48:32;;;;;;;2.67;1.40;;;7.40;99.90;;;;;;4965171;28;20566;-86
2023/01/30 05:50:59;;;;;;;4.28;1.38;;;7.40;99.90;;;;;;4964717;28;20551;-86
2023/01/30 05:53:27;;;;;;;2.03;1.20;;;7.40;99.90;;;;;;4949620;28;20130;-86
2023/01/30 05:55:58;;;;;;;1.67;1.08;;;7.30;99.90;;;;;;4964797;28;20090;-87
2023/01/30 05:58:25;;;;;;;1.80;1.25;;;7.30;99.90;;;;;;4964210;28;20486;-87
2023/01/30 06:00:52;;;;;;;0.82;0.60;;;7.30;99.90;;;;;;4980112;28;20499;-86
2023/01/30 06:03:19;;;;;;;1.30;0.85;;;7.30;99.90;;;;;;4962119;28;20150;-85
2023/01/30 06:05:46;;;;;;;1.02;0.80;;;7.30;99.90;;;;;;4938260;28;20066;-86
2023/01/30 06:08:12;;;;;;;1.10;0.80;;;7.20;99.90;;;;;;4948580;28;20058;-87
2023/01/30 06:10:40;;;;;;;1.85;0.90;;;7.30;99.90;;;;;;4965842;28;20059;-86
2023/01/30 06:13:09;;;;;;;1.98;0.90;;;7.30;99.90;;;;;;4947522;29;20180;-88
2023/01/30 06:15:37;;;;;;;2.30;1.30;;;7.30;99.90;;;;;;4949693;28;20562;-87
2023/01/30 06:18:03;;;;;;;3.20;1.73;;;7.40;99.90;;;;;;4963042;28;20061;-87
2023/01/30 06:20:30;;;;;;;3.05;1.33;;;7.40;99.90;;;;;;4977485;28;20523;-88
2023/01/30 06:22:57;;;;;;;1.98;1.10;;;7.40;99.90;;;;;;4963154;28;20142;-88
2023/01/30 06:25:24;;;;;;;3.60;1.23;;;7.50;99.90;;;;;;4958524;28;20121;-88
2023/01/30 06:27:51;;;;;;;3.60;1.58;;;7.60;99.90;;;;;;4971894;28;20126;-86
2023/01/30 06:30:18;;;;;;;1.80;1.17;;;7.70;99.90;;;;;;4941731;28;20047;-83
2023/01/30 06:32:49;;;;;;;1.92;1.23;;;7.80;99.90;;;;;;4942734;28;20058;-85
2023/01/30 06:35:16;;;;;;;4.07;2.33;;;7.80;99.90;;;;;;4970524;28;20161;-85
2023/01/30 06:37:44;;;;;;;3.95;1.77;;;7.90;99.90;;;;;;4944726;28;20054;-83
2023/01/30 06:40:12;;;;;;;3.78;1.40;;;7.90;99.90;;;;;;4956165;28;20083;-84
2023/01/30 06:42:43;;;;;;;6.82;2.00;;;8.00;99.90;;;;;;4959544;28;20145;-86
2023/01/30 06:45:12;;;;;;;3.63;1.77;;;8.00;99.90;;;;;;4968750;28;20466;-86
2023/01/30 06:47:49;;;;;;;2.67;2.03;;;8.00;99.90;;;;;;4963997;28;20047;-86
2023/01/30 06:50:17;;;;;;;5.07;1.80;;;8.10;99.90;;;;;;4973921;28;20118;-85
2023/01/30 06:52:45;;;;;;;3.17;1.77;;;8.10;99.90;;;;;;4944544;28;20101;-84
2023/01/30 06:55:13;;;;;;;5.20;2.05;;;8.00;99.90;;;;;;4977533;28;20094;-85
2023/01/30 06:57:40;;;;;;;3.03;1.90;;;8.00;99.90;;;;;;4946689;28;20158;-84
2023/01/30 07:00:11;;;;;;;2.80;1.65;;;8.00;99.90;;;;;;4944533;28;20066;-83
2023/01/30 07:02:38;;;;;;;3.72;1.88;;;7.90;99.90;;;;;;4974954;28;20463;-84
2023/01/30 07:05:07;;;;;;;2.35;1.88;;;7.80;99.90;;;;;;4975451;28;20051;-84
2023/01/30 07:07:34;;;;;;;3.40;2.00;;;7.70;99.90;;;;;;4943889;29;20083;-84
2023/01/30 07:10:01;;;;;;;6.45;2.38;;;7.70;99.90;;;;;;4959913;28;20542;-83
2023/01/30 07:12:35;;;;;;;4.85;1.85;;;7.70;99.90;;;;;;4959367;28;20094;-86
2023/01/30 07:15:02;;;;;;;2.72;1.88;;;7.70;99.90;;;;;;4957011;28;20063;-85
2023/01/30 07:17:29;;;;;;;3.38;1.70;;;7.70;99.90;;;;;;4951774;28;20158;-87
2023/01/30 07:19:56;;;;;;;6.75;1.75;;;7.70;99.90;;;;;;4975645;28;20499;-85
2023/01/30 07:22:23;;;;;;;5.45;2.17;;;7.70;99.90;;;;;;4976073;28;20047;-83
2023/01/30 07:24:50;;;;;;;3.08;1.80;;;7.70;99.90;;;;;;4955589;28;20557;-83
2023/01/30 07:27:17;;;;;;;2.00;1.27;;;7.70;99.90;;;;;;4943349;29;20058;-86
2023/01/30 07:29:43;;;;;;;3.35;2.00;;;7.70;99.90;;;;;;4939056;28;20051;-84
2023/01/30 07:32:17;;;;;;;4.35;2.20;;;7.60;99.90;;;;;;4923460;29;20154;-83
2023/01/30 07:34:44;;;;;;;4.60;1.90;;;7.50;99.90;;;;;;4941893;28;20055;-84
2023/01/30 07:37:11;;;;;;;6.45;2.05;;;7.40;99.90;;;;;;4941505;28;20117;-84
2023/01/30 07:39:38;;;;;;;3.65;1.55;;;7.30;99.90;;;;;;4944054;28;20055;-85
2023/01/30 07:42:05;;;;;;;3.28;1.90;;;7.30;99.90;;;;;;4948199;28;20054;-85
2023/01/30 07:44:33;;;;;;;5.97;1.80;;;7.20;99.90;;;;;;4977765;28;20074;-87
2023/01/30 07:47:00;;;;;;;3.13;1.75;;;7.20;99.90;;;;;;4954409;28;20104;-89
2023/01/30 07:49:26;;;;;;;4.38;1.60;;;7.10;99.90;;;;;;4927262;29;20298;-88
2023/01/30 07:51:53;;;;;;;2.53;1.35;;;7.10;99.90;;;;;;4991241;28;20157;-90
2023/01/30 07:54:20;;;;;;;5.32;1.65;;;7.10;99.90;;;;;;4949383;28;20047;-91
2023/01/30 07:56:47;;;;;;;3.80;1.83;;;7.10;99.90;;;;;;4947480;28;20448;-83
2023/01/30 07:59:13;;;;;;;4.43;1.70;;;7.00;99.90;;;;;;4944918;28;20595;-89
2023/01/30 08:01:40;;;;;;;4.95;1.63;;;7.00;99.90;;;;;;4945196;28;20090;-90
2023/01/30 08:04:09;;;;;;;5.13;1.65;;;7.00;99.90;;;;;;4975488;28;20071;-89
2023/01/30 08:06:37;;;;;;;5.28;1.65;;;7.00;99.90;;;;;;4944314;28;20111;-89
2023/01/30 08:09:05;;;;;;;2.63;1.33;;;7.00;99.90;;;;;;4961997;28;20052;-91
2023/01/30 08:11:32;;;;;;;4.57;1.70;;;7.00;99.90;;;;;;4945466;28;20098;-90
2023/01/30 08:13:58;;;;;;;2.92;1.30;;;7.10;99.90;;;;;;4976166;28;20435;-89
2023/01/30 08:16:25;;;;;;;3.83;1.40;;;7.10;99.90;;;;;;4952974;29;20123;-90
2023/01/30 08:18:52;;;;;;;5.70;1.70;;;7.20;99.90;;;;;;4952725;29;20143;-89
2023/01/30 08:21:19;;;;;;;4.47;1.65;;;7.20;99.90;;;;;;4951200;29;20098;-93
2023/01/30 08:23:46;;;;;;;4.97;1.60;;;7.20;99.90;;;;;;4952250;29;20065;-93
2023/01/30 08:26:12;;;;;;;6.97;1.50;;;7.20;99.90;;;;;;4951133;29;20430;-94
2023/01/30 08:28:39;;;;;;;2.50;1.27;;;7.20;99.90;;;;;;4950069;28;20043;-92
2023/01/30 08:31:10;;;;;;;4.60;1.73;;;7.20;99.90;;;;;;4950290;28;20059;-92
2023/01/30 08:33:37;;;;;;;4.53;1.42;;;7.20;99.90;;;;;;4913652;29;20070;-90
2023/01/30 08:36:04;;;;;;;4.18;1.55;;;7.20;99.90;;;;;;4947228;29;20540;-94
2023/01/30 08:38:31;;;;;;;3.08;0.95;;;7.20;99.90;;;;;;4931431;29;20483;-93
2023/01/30 08:40:59;;;;;;;4.20;1.38;;;7.20;99.90;;;;;;4944581;29;20053;-93
2023/01/30 08:43:26;;;;;;;3.22;1.27;;;7.20;99.90;;;;;;4978979;28;20051;-92
2023/01/30 08:45:53;;;;;;;3.90;1.42;;;7.20;99.90;;;;;;4946037;28;20483;-93
2023/01/30 08:48:20;;;;;;;5.10;1.50;;;7.20;99.90;;;;;;4960224;28;20117;-93
2023/01/30 08:50:49;;;;;;;2.70;1.25;;;7.20;99.90;;;;;;4946956;29;20162;-93
2023/01/30 08:53:16;;;;;;;4.57;0.95;;;7.20;99.90;;;;;;4945378;29;20066;-92
2023/01/30 08:55:44;;;;;;;2.65;1.13;;;7.20;99.90;;;;;;4959528;28;20508;-94
2023/01/30 08:58:10;;;;;;;3.47;1.48;;;7.20;99.90;;;;;;4943326;28;20093;-92
2023/01/30 09:00:38;;;;;;;3.72;1.50;;;7.30;99.90;;;;;;4960714;28;20055;-93
2023/01/30 09:03:05;;;;;;;7.43;2.00;;;7.20;99.90;;;;;;4945510;29;20055;-88
2023/01/30 09:05:32;;;;;;;4.30;1.60;;;7.20;99.90;;;;;;4976929;28;20359;-90
2023/01/30 09:07:58;;;;;;;4.95;1.60;;;7.30;99.90;;;;;;4944586;29;20047;-91
2023/01/30 09:10:25;;;;;;;5.93;1.63;;;7.20;99.90;;;;;;4972668;28;20142;-88
2023/01/30 09:12:52;;;;;;;5.22;1.50;;;7.30;99.90;;;;;;4941437;28;20279;-88
2023/01/30 09:15:19;;;;;;;5.03;1.77;;;7.30;99.90;;;;;;4943863;29;20146;-90
2023/01/30 09:17:46;;;;;;;3.28;1.50;;;7.40;99.90;;;;;;4941745;28;20061;-92
2023/01/30 09:20:13;;;;;;;4.72;1.50;;;7.40;99.90;;;;;;4970511;28;20439;-88
2023/01/30 09:22:39;;;;;;;4.05;1.80;;;7.50;99.90;;;;;;4956766;28;20462;-93
2023/01/30 09:25:07;;;;;;;3.38;1.23;;;7.40;99.90;;;;;;4959902;28;20451;-91
2023/01/30 09:27:34;;;;;;;5.72;2.13;;;7.40;99.90;;;;;;4977950;28;20482;-91
2023/01/30 09:30:01;;;;;;;5.68;2.08;;;7.40;99.90;;;;;;4955804;28;20169;-92
2023/01/30 09:32:27;;;;;;;5.18;2.10;;;7.40;99.90;;;;;;4975895;28;20087;-91
2023/01/30 09:34:54;;;;;;;7.15;2.22;;;7.40;99.90;;;;;;4945227;28;20122;-92
2023/01/30 09:37:21;;;;;;;4.68;1.80;;;7.40;99.90;;;;;;4945922;29;20466;-91
2023/01/30 09:39:48;;;;;;;12.05;2.35;;;7.50;99.90;;;;;;4943850;28;20162;-86
2023/01/30 09:42:36;;;;;;;8.38;2.08;;;7.40;99.90;;;;;;4967258;28;20051;-75
2023/01/30 09:45:21;;;;;;;4.65;1.50;;;7.40;99.90;;;;;;4938126;29;20102;-74
2023/01/30 09:47:51;;;;;;;4.35;1.58;;;7.40;99.90;;;;;;4938464;29;20138;-74
2023/01/30 09:50:42;;;;;;;4.07;1.45;;;7.50;99.90;;;;;;4967413;28;20056;-74
2023/01/30 09:53:17;;;;;;;6.05;2.00;;;7.50;99.90;;;;;;4939501;28;20541;-76
2023/01/30 09:55:45;;;;;;;6.68;1.80;;;7.50;99.90;;;;;;4968660;28;20292;-75
2023/01/30 09:58:22;;;;;;;5.70;1.50;;;7.50;99.90;;;;;;4952342;28;20347;-76
2023/01/30 10:00:52;;;;;;;5.90;1.50;;;7.50;99.90;;;;;;4953509;28;20083;-75
2023/01/30 10:03:40;;;;;;;4.68;1.73;;;7.50;99.90;;;;;;4951117;28;20058;-76
2023/01/30 10:06:11;;;;;;;4.40;2.80;;;7.60;99.90;;;;;;4952765;28;20618;-75
2023/01/30 10:08:44;;;;;;;3.13;1.23;;;7.60;99.90;;;;;;4950732;28;20051;-76
2023/01/30 10:11:35;;;;;;;5.35;1.83;;;7.60;99.90;;;;;;4971482;28;20145;-76
2023/01/30 10:14:17;;;;;;;7.43;2.17;;;7.60;99.90;;;;;;4952529;28;20130;-76
2023/01/30 10:17:02;;;;;;;9.85;2.80;;;7.60;99.90;;;;;;4941622;29;20078;-76
2023/01/30 10:19:49;;;;;;;6.85;1.92;;;7.60;99.90;;;;;;4972532;28;20526;-76
2023/01/30 10:22:37;;;;;;;12.07;2.85;;;7.60;99.90;;;;;;4969736;28;20396;-76
2023/01/30 10:25:19;;;;;;;6.60;2.22;;;7.60;99.90;;;;;;4941543;29;20134;-76
2023/01/30 10:28:05;;;;;;;8.85;2.38;;;7.60;99.90;;;;;;4956976;28;20154;-76
2023/01/30 10:30:32;;;;;;;4.70;1.98;;;7.60;99.90;;;;;;4955174;28;20078;-76
2023/01/30 10:33:11;;;;;;;5.78;2.35;;;7.60;99.90;;;;;;4941204;28;20130;-76
2023/01/30 10:35:38;;;;;;;5.15;2.00;;;7.70;99.90;;;;;;4973135;28;20051;-76
2023/01/30 10:38:23;;;;;;;4.47;1.70;;;7.70;99.90;;;;;;4940889;29;20086;-76
2023/01/30 10:41:09;;;;;;;7.72;3.13;;;7.70;99.90;;;;;;4983842;28;20050;-76
2023/01/30 10:44:04;;;;;;;6.47;1.77;;;7.70;99.90;;;;;;4948012;28;20074;-75
2023/01/30 10:46:43;;;;;;;6.60;2.03;;;7.80;99.90;;;;;;4970431;28;20434;-76
2023/01/30 10:49:39;;;;;;;5.82;1.77;;;7.80;99.90;;;;;;4971705;28;20047;-76
2023/01/30 10:52:37;;;;;;;6.30;1.70;;;7.90;99.90;;;;;;4942116;28;20055;-76
2023/01/30 10:55:26;;;;;;;3.85;1.52;;;7.90;99.90;;;;;;4940874;29;20111;-76
2023/01/30 10:58:53;;;;;;;5.75;2.15;;;8.00;99.90;;;;;;4971583;28;20051;-76
2023/01/30 11:01:24;;;;;;;7.68;2.40;;;8.00;99.90;;;;;;4896228;29;20056;-76
2023/01/30 11:04:18;;;;;;;6.55;1.95;;;8.10;99.90;;;;;;4910978;29;20068;-76
2023/01/30 11:06:45;;;;;;;5.05;1.65;;;8.20;99.90;;;;;;4938743;28;20058;-76
2023/01/30 11:09:11;;;;;;;6.43;1.95;;;8.30;99.90;;;;;;4975490;28;20110;-76
2023/01/30 11:11:38;;;;;;;4.90;1.80;;;8.40;99.90;;;;;;4944878;29;20055;-76
2023/01/30 11:14:06;;;;;;;7.18;1.70;;;8.40;99.90;;;;;;4943151;29;20051;-76
2023/01/30 11:16:43;;;;;;;6.25;2.03;;;8.50;99.90;;;;;;4959284;28;20476;-76
2023/01/30 11:19:09;;;;;;;8.02;1.98;;;8.60;99.90;;;;;;4944910;28;20134;-76
2023/01/30 11:21:51;;;;;;;8.95;2.72;;;8.50;99.90;;;;;;4942991;28;20524;-76
2023/01/30 11:24:22;;;;;;;5.32;1.85;;;8.50;99.90;;;;;;4958746;28;20062;-73
2023/01/30 11:26:51;;;;;;;4.25;1.65;;;8.60;99.90;;;;;;4942819;29;20184;-74
2023/01/30 11:29:29;;;;;;;6.22;2.58;;;8.60;99.90;;;;;;4958032;28;20071;-73
2023/01/30 11:32:00;;;;;;;6.00;2.03;;;8.50;99.90;;;;;;4943330;29;20471;-74
2023/01/30 11:34:27;;;;;;;5.95;2.45;;;8.50;99.90;;;;;;4944398;29;20578;-74
2023/01/30 11:36:53;;;;;;;5.57;2.30;;;8.50;99.90;;;;;;4975980;28;20130;-75
2023/01/30 11:39:22;;;;;;;5.78;2.25;;;8.60;99.90;;;;;;4975387;28;20051;-75
2023/01/30 11:42:00;;;;;;;4.82;2.03;;;8.60;99.90;;;;;;4975249;28;20047;-74
2023/01/30 11:44:28;;;;;;;6.68;2.42;;;8.60;99.90;;;;;;4973483;28;20047;-74
2023/01/30 11:47:00;;;;;;;5.20;1.98;;;8.60;99.90;;;;;;4974721;28;20051;-75
2023/01/30 11:49:47;;;;;;;5.47;2.38;;;8.60;99.90;;;;;;4974668;28;20094;-74
2023/01/30 11:52:28;;;;;;;6.20;1.98;;;8.60;99.90;;;;;;4955462;28;20059;-74
2023/01/30 11:55:07;;;;;;;4.03;1.85;;;8.70;99.90;;;;;;4958804;28;20712;-74
2023/01/30 11:57:44;;;;;;;6.20;2.60;;;8.80;99.90;;;;;;4958537;28;20054;-77
2023/01/30 12:00:19;;;;;;;6.72;2.67;;;8.80;99.90;;;;;;4972866;28;20062;-75
2023/01/30 12:02:47;;;;;;;8.50;2.40;;;8.90;99.90;;;;;;4974905;28;20170;-74
2023/01/30 12:05:24;;;;;;;9.93;2.28;;;8.90;99.90;;;;;;4975308;28;20189;-74
2023/01/30 12:07:52;;;;;;;8.13;2.55;;;8.90;99.90;;;;;;4973692;28;20421;-74
2023/01/30 12:10:29;;;;;;;7.25;1.98;;;8.90;99.90;;;;;;4974975;28;20290;-74
2023/01/30 12:12:59;;;;;;;4.97;2.58;;;9.00;99.90;;;;;;4956617;28;20113;-75
2023/01/30 12:15:27;;;;;;;6.38;2.75;;;9.00;99.90;;;;;;4958458;28;20073;-74
2023/01/30 12:18:20;;;;;;;4.65;1.77;;;9.10;99.90;;;;;;4958572;28;20063;-74
2023/01/30 12:20:57;;;;;;;4.90;2.33;;;9.10;99.90;;;;;;4944762;28;20073;-74
2023/01/30 12:23:51;;;;;;;5.75;2.00;;;9.20;99.90;;;;;;4957376;28;20533;-74
2023/01/30 12:26:36;;;;;;;6.88;2.15;;;9.10;99.90;;;;;;4956509;28;20241;-75
2023/01/30 12:29:46;;;;;;;5.03;2.10;;;9.00;99.90;;;;;;4955951;28;20195;-75
2023/01/30 12:32:17;;;;;;;5.85;2.10;;;9.00;99.90;;;;;;4950317;28;20134;-75
2023/01/30 12:34:45;;;;;;;6.68;2.00;;;9.00;99.90;;;;;;4973726;28;20079;-75
2023/01/30 12:37:24;;;;;;;5.13;1.95;;;9.10;99.90;;;;;;4958483;28;20130;-74
2023/01/30 12:40:14;;;;;;;6.35;2.13;;;9.20;99.90;;;;;;4972242;28;20563;-74
2023/01/30 12:43:27;;;;;;;4.22;1.98;;;9.40;99.90;;;;;;4968677;28;20054;-75
2023/01/30 12:46:03;;;;;;;5.63;2.33;;;9.50;99.90;;;;;;4940421;29;20086;-74
2023/01/30 12:48:50;;;;;;;5.45;2.20;;;9.50;99.90;;;;;;4957223;28;20082;-75
2023/01/30 12:51:53;;;;;;;7.67;2.90;;;9.40;99.90;;;;;;4940578;29;20062;-74
2023/01/30 12:54:41;;;;;;;8.43;2.47;;;9.20;99.90;;;;;;4933593;28;20388;-74
2023/01/30 12:57:28;;;;;;;9.55;2.53;;;9.10;99.90;;;;;;4939744;29;20302;-81
2023/01/30 13:00:08;;;;;;;7.38;2.70;;;9.00;99.90;;;;;;4943223;28;20063;-89
2023/01/30 13:03:13;;;;;;;7.63;2.25;;;9.10;99.90;;;;;;4961763;28;20043;-90
2023/01/30 13:05:44;;;;;;;4.38;2.10;;;9.10;99.90;;;;;;4937871;28;20163;-89
2023/01/30 13:08:17;;;;;;;8.98;2.50;;;9.10;99.90;;;;;;4976825;28;20047;-88
2023/01/30 13:11:02;;;;;;;4.55;1.55;;;9.20;99.90;;;;;;4946091;29;20362;-89
2023/01/30 13:13:34;;;;;;;7.20;2.08;;;9.30;99.90;;;;;;4950186;28;20106;-88
2023/01/30 13:16:09;;;;;;;6.30;1.90;;;9.30;99.90;;;;;;4961879;28;20052;-88
2023/01/30 13:18:45;;;;;;;3.55;1.30;;;9.40;99.90;;;;;;4976893;28;20293;-88
2023/01/30 13:21:22;;;;;;;6.40;2.15;;;9.40;99.90;;;;;;4946536;28;20069;-88
2023/01/30 13:24:16;;;;;;;10.65;2.72;;;9.70;99.90;;;;;;4961716;28;20102;-88
2023/01/30 13:26:44;;;;;;;6.03;3.28;;;10.20;99.90;;;;;;4946182;29;20311;-89
2023/01/30 13:29:17;;;;;;;5.68;2.78;;;10.80;99.90;;;;;;4945148;28;20697;-89
2023/01/30 13:31:52;;;;;;;7.47;2.85;;;11.10;99.90;;;;;;4960844;28;20050;-89